sensor_id;sensor_type;location;lat;lon;timestamp;P1;durP1;ratioP1;P2;durP2;ratioP2
71253;SDS011;59019;47.638;18.966;2022-10-29T00:00:47;23.83;;;10.60;;
71253;SDS011;59019;47.638;18.966;2022-10-29T00:03:14;29.83;;;11.52;;
71253;SDS011;59019;47.638;18.966;2022-10-29T00:05:40;28.05;;;11.85;;
71253;SDS011;59019;47.638;18.966;2022-10-29T00:08:06;25.58;;;10.73;;
71253;SDS011;59019;47.638;18.966;2022-10-29T00:10:31;26.58;;;10.90;;
71253;SDS011;59019;47.638;18.966;2022-10-29T00:13:00;26.23;;;11.83;;
71253;SDS011;59019;47.638;18.966;2022-10-29T00:15:27;26.80;;;11.73;;
71253;SDS011;59019;47.638;18.966;2022-10-29T00:17:53;26.40;;;11.33;;
71253;SDS011;59019;47.638;18.966;2022-10-29T00:20:18;28.48;;;11.10;;
71253;SDS011;59019;47.638;18.966;2022-10-29T00:22:45;26.77;;;11.55;;
71253;SDS011;59019;47.638;18.966;2022-10-29T00:25:11;24.92;;;10.75;;
71253;SDS011;59019;47.638;18.966;2022-10-29T00:27:37;28.13;;;11.33;;
71253;SDS011;59019;47.638;18.966;2022-10-29T00:30:02;26.60;;;11.30;;
71253;SDS011;59019;47.638;18.966;2022-10-29T00:32:28;24.52;;;11.52;;
71253;SDS011;59019;47.638;18.966;2022-10-29T00:34:54;26.00;;;10.90;;
71253;SDS011;59019;47.638;18.966;2022-10-29T00:37:19;31.67;;;12.00;;
71253;SDS011;59019;47.638;18.966;2022-10-29T00:39:45;25.10;;;11.37;;
71253;SDS011;59019;47.638;18.966;2022-10-29T00:42:14;29.67;;;11.73;;
71253;SDS011;59019;47.638;18.966;2022-10-29T00:44:40;27.15;;;11.02;;
71253;SDS011;59019;47.638;18.966;2022-10-29T00:49:53;27.27;;;10.77;;
71253;SDS011;59019;47.638;18.966;2022-10-29T00:52:23;28.67;;;12.18;;
71253;SDS011;59019;47.638;18.966;2022-10-29T00:54:50;31.05;;;12.82;;
71253;SDS011;59019;47.638;18.966;2022-10-29T00:57:21;26.38;;;11.63;;
71253;SDS011;59019;47.638;18.966;2022-10-29T00:59:50;28.50;;;10.75;;
71253;SDS011;59019;47.638;18.966;2022-10-29T01:02:16;25.30;;;11.13;;
71253;SDS011;59019;47.638;18.966;2022-10-29T01:04:42;28.35;;;11.20;;
71253;SDS011;59019;47.638;18.966;2022-10-29T01:07:09;25.90;;;10.68;;
71253;SDS011;59019;47.638;18.966;2022-10-29T01:09:36;24.87;;;10.77;;
71253;SDS011;59019;47.638;18.966;2022-10-29T01:17:28;24.60;;;10.50;;
71253;SDS011;59019;47.638;18.966;2022-10-29T01:37:17;24.52;;;11.13;;
71253;SDS011;59019;47.638;18.966;2022-10-29T01:39:50;26.50;;;10.88;;
71253;SDS011;59019;47.638;18.966;2022-10-29T01:44:48;24.33;;;10.53;;
71253;SDS011;59019;47.638;18.966;2022-10-29T01:47:21;22.05;;;9.98;;
71253;SDS011;59019;47.638;18.966;2022-10-29T01:49:52;25.75;;;10.65;;
71253;SDS011;59019;47.638;18.966;2022-10-29T01:52:21;25.83;;;11.37;;
71253;SDS011;59019;47.638;18.966;2022-10-29T01:54:48;26.77;;;11.20;;
71253;SDS011;59019;47.638;18.966;2022-10-29T01:59:54;21.75;;;9.88;;
71253;SDS011;59019;47.638;18.966;2022-10-29T02:02:32;23.65;;;10.35;;
71253;SDS011;59019;47.638;18.966;2022-10-29T02:05:10;28.60;;;12.07;;
71253;SDS011;59019;47.638;18.966;2022-10-29T02:07:49;29.02;;;11.23;;
71253;SDS011;59019;47.638;18.966;2022-10-29T02:10:22;29.20;;;11.87;;
71253;SDS011;59019;47.638;18.966;2022-10-29T02:12:52;29.83;;;12.20;;
71253;SDS011;59019;47.638;18.966;2022-10-29T02:18:02;25.83;;;11.48;;
71253;SDS011;59019;47.638;18.966;2022-10-29T02:20:30;30.98;;;11.82;;
71253;SDS011;59019;47.638;18.966;2022-10-29T02:22:55;26.40;;;12.07;;
71253;SDS011;59019;47.638;18.966;2022-10-29T02:25:21;32.40;;;12.30;;
71253;SDS011;59019;47.638;18.966;2022-10-29T02:27:47;31.90;;;12.57;;
71253;SDS011;59019;47.638;18.966;2022-10-29T02:30:13;28.67;;;11.48;;
71253;SDS011;59019;47.638;18.966;2022-10-29T02:32:39;30.27;;;12.50;;
71253;SDS011;59019;47.638;18.966;2022-10-29T02:35:05;30.80;;;13.07;;
71253;SDS011;59019;47.638;18.966;2022-10-29T02:37:31;28.87;;;12.03;;
71253;SDS011;59019;47.638;18.966;2022-10-29T02:39:57;29.45;;;12.77;;
71253;SDS011;59019;47.638;18.966;2022-10-29T02:42:22;28.13;;;12.83;;
71253;SDS011;59019;47.638;18.966;2022-10-29T02:44:48;27.90;;;12.20;;
71253;SDS011;59019;47.638;18.966;2022-10-29T02:47:13;29.50;;;12.30;;
71253;SDS011;59019;47.638;18.966;2022-10-29T02:49:39;28.40;;;11.87;;
71253;SDS011;59019;47.638;18.966;2022-10-29T02:52:04;25.95;;;11.43;;
71253;SDS011;59019;47.638;18.966;2022-10-29T02:54:30;30.70;;;12.65;;
71253;SDS011;59019;47.638;18.966;2022-10-29T02:56:56;29.60;;;12.37;;
71253;SDS011;59019;47.638;18.966;2022-10-29T02:59:21;29.98;;;11.98;;
71253;SDS011;59019;47.638;18.966;2022-10-29T03:01:47;26.83;;;11.95;;
71253;SDS011;59019;47.638;18.966;2022-10-29T03:04:12;24.57;;;11.73;;
71253;SDS011;59019;47.638;18.966;2022-10-29T03:06:38;28.88;;;12.15;;
71253;SDS011;59019;47.638;18.966;2022-10-29T03:09:04;26.33;;;11.20;;
71253;SDS011;59019;47.638;18.966;2022-10-29T03:11:29;26.47;;;11.53;;
71253;SDS011;59019;47.638;18.966;2022-10-29T03:13:55;26.00;;;11.85;;
71253;SDS011;59019;47.638;18.966;2022-10-29T03:16:20;27.13;;;11.47;;
71253;SDS011;59019;47.638;18.966;2022-10-29T03:18:46;26.20;;;11.80;;
71253;SDS011;59019;47.638;18.966;2022-10-29T03:21:11;26.52;;;11.50;;
71253;SDS011;59019;47.638;18.966;2022-10-29T03:23:37;24.92;;;11.13;;
71253;SDS011;59019;47.638;18.966;2022-10-29T03:26:02;25.17;;;11.23;;
71253;SDS011;59019;47.638;18.966;2022-10-29T03:28:28;26.52;;;11.55;;
71253;SDS011;59019;47.638;18.966;2022-10-29T03:30:55;23.53;;;11.63;;
71253;SDS011;59019;47.638;18.966;2022-10-29T03:33:24;26.60;;;11.60;;
71253;SDS011;59019;47.638;18.966;2022-10-29T03:35:57;26.65;;;11.35;;
71253;SDS011;59019;47.638;18.966;2022-10-29T03:38:23;26.05;;;11.63;;
71253;SDS011;59019;47.638;18.966;2022-10-29T03:40:49;26.63;;;11.53;;
71253;SDS011;59019;47.638;18.966;2022-10-29T03:43:15;24.92;;;11.07;;
71253;SDS011;59019;47.638;18.966;2022-10-29T03:45:40;26.87;;;10.90;;
71253;SDS011;59019;47.638;18.966;2022-10-29T03:48:06;31.07;;;13.27;;
71253;SDS011;59019;47.638;18.966;2022-10-29T03:50:31;27.98;;;13.13;;
71253;SDS011;59019;47.638;18.966;2022-10-29T03:52:57;27.00;;;11.50;;
71253;SDS011;59019;47.638;18.966;2022-10-29T03:55:22;32.43;;;12.40;;
71253;SDS011;59019;47.638;18.966;2022-10-29T03:57:48;30.92;;;12.45;;
71253;SDS011;59019;47.638;18.966;2022-10-29T04:00:14;31.50;;;12.60;;
71253;SDS011;59019;47.638;18.966;2022-10-29T04:02:40;28.42;;;11.02;;
71253;SDS011;59019;47.638;18.966;2022-10-29T04:05:06;37.20;;;13.10;;
71253;SDS011;59019;47.638;18.966;2022-10-29T04:07:32;27.90;;;11.45;;
71253;SDS011;59019;47.638;18.966;2022-10-29T04:09:58;26.33;;;11.23;;
71253;SDS011;59019;47.638;18.966;2022-10-29T04:12:23;25.90;;;11.07;;
71253;SDS011;59019;47.638;18.966;2022-10-29T04:14:49;30.30;;;11.48;;
71253;SDS011;59019;47.638;18.966;2022-10-29T04:17:14;31.67;;;13.50;;
71253;SDS011;59019;47.638;18.966;2022-10-29T04:19:40;32.27;;;12.87;;
71253;SDS011;59019;47.638;18.966;2022-10-29T04:22:05;30.80;;;11.93;;
71253;SDS011;59019;47.638;18.966;2022-10-29T04:24:31;28.33;;;11.50;;
71253;SDS011;59019;47.638;18.966;2022-10-29T04:26:57;28.50;;;12.23;;
71253;SDS011;59019;47.638;18.966;2022-10-29T04:29:22;27.65;;;11.45;;
71253;SDS011;59019;47.638;18.966;2022-10-29T04:31:48;29.07;;;11.87;;
71253;SDS011;59019;47.638;18.966;2022-10-29T04:34:13;28.40;;;12.82;;
71253;SDS011;59019;47.638;18.966;2022-10-29T04:36:39;34.83;;;12.47;;
71253;SDS011;59019;47.638;18.966;2022-10-29T04:39:06;29.07;;;11.27;;
71253;SDS011;59019;47.638;18.966;2022-10-29T04:41:32;34.50;;;13.90;;
71253;SDS011;59019;47.638;18.966;2022-10-29T04:43:57;31.23;;;12.67;;
71253;SDS011;59019;47.638;18.966;2022-10-29T04:46:23;28.63;;;12.40;;
71253;SDS011;59019;47.638;18.966;2022-10-29T04:48:48;32.43;;;11.73;;
71253;SDS011;59019;47.638;18.966;2022-10-29T04:51:24;31.42;;;11.30;;
71253;SDS011;59019;47.638;18.966;2022-10-29T04:53:51;32.23;;;12.07;;
71253;SDS011;59019;47.638;18.966;2022-10-29T04:56:17;33.50;;;12.40;;
71253;SDS011;59019;47.638;18.966;2022-10-29T04:58:42;34.63;;;12.90;;
71253;SDS011;59019;47.638;18.966;2022-10-29T05:01:08;33.70;;;12.65;;
71253;SDS011;59019;47.638;18.966;2022-10-29T05:03:33;37.17;;;13.10;;
71253;SDS011;59019;47.638;18.966;2022-10-29T05:06:03;38.33;;;14.23;;
71253;SDS011;59019;47.638;18.966;2022-10-29T05:08:30;29.67;;;12.00;;
71253;SDS011;59019;47.638;18.966;2022-10-29T05:10:55;34.95;;;15.05;;
71253;SDS011;59019;47.638;18.966;2022-10-29T05:13:21;31.70;;;12.53;;
71253;SDS011;59019;47.638;18.966;2022-10-29T05:15:50;35.35;;;14.60;;
71253;SDS011;59019;47.638;18.966;2022-10-29T05:18:16;32.37;;;13.50;;
71253;SDS011;59019;47.638;18.966;2022-10-29T05:20:41;32.47;;;12.63;;
71253;SDS011;59019;47.638;18.966;2022-10-29T05:23:08;32.33;;;12.10;;
71253;SDS011;59019;47.638;18.966;2022-10-29T05:25:37;28.77;;;11.82;;
71253;SDS011;59019;47.638;18.966;2022-10-29T05:30:39;26.40;;;11.52;;
71253;SDS011;59019;47.638;18.966;2022-10-29T05:33:06;27.88;;;11.52;;
71253;SDS011;59019;47.638;18.966;2022-10-29T05:35:33;25.23;;;11.07;;
71253;SDS011;59019;47.638;18.966;2022-10-29T05:37:59;33.28;;;13.48;;
71253;SDS011;59019;47.638;18.966;2022-10-29T05:40:25;31.10;;;13.02;;
71253;SDS011;59019;47.638;18.966;2022-10-29T05:42:51;28.57;;;12.63;;
71253;SDS011;59019;47.638;18.966;2022-10-29T05:45:16;29.48;;;11.50;;
71253;SDS011;59019;47.638;18.966;2022-10-29T05:47:42;30.83;;;12.50;;
71253;SDS011;59019;47.638;18.966;2022-10-29T05:50:08;27.77;;;12.30;;
71253;SDS011;59019;47.638;18.966;2022-10-29T05:52:35;31.88;;;12.93;;
71253;SDS011;59019;47.638;18.966;2022-10-29T05:55:02;28.85;;;12.00;;
71253;SDS011;59019;47.638;18.966;2022-10-29T05:57:28;28.20;;;13.20;;
71253;SDS011;59019;47.638;18.966;2022-10-29T05:59:53;28.50;;;11.30;;
71253;SDS011;59019;47.638;18.966;2022-10-29T06:02:19;26.63;;;11.97;;
71253;SDS011;59019;47.638;18.966;2022-10-29T06:04:44;28.10;;;12.20;;
71253;SDS011;59019;47.638;18.966;2022-10-29T06:07:10;27.60;;;11.43;;
71253;SDS011;59019;47.638;18.966;2022-10-29T06:09:36;27.48;;;12.07;;
71253;SDS011;59019;47.638;18.966;2022-10-29T06:12:02;28.38;;;11.85;;
71253;SDS011;59019;47.638;18.966;2022-10-29T06:14:27;27.90;;;12.13;;
71253;SDS011;59019;47.638;18.966;2022-10-29T06:16:53;30.37;;;11.87;;
71253;SDS011;59019;47.638;18.966;2022-10-29T06:19:18;26.77;;;11.27;;
71253;SDS011;59019;47.638;18.966;2022-10-29T06:21:44;26.15;;;11.60;;
71253;SDS011;59019;47.638;18.966;2022-10-29T06:24:10;28.83;;;11.33;;
71253;SDS011;59019;47.638;18.966;2022-10-29T06:26:37;23.33;;;10.20;;
71253;SDS011;59019;47.638;18.966;2022-10-29T06:29:02;26.55;;;11.38;;
71253;SDS011;59019;47.638;18.966;2022-10-29T06:31:28;28.73;;;11.48;;
71253;SDS011;59019;47.638;18.966;2022-10-29T06:33:54;31.57;;;11.73;;
71253;SDS011;59019;47.638;18.966;2022-10-29T06:36:19;26.60;;;11.13;;
71253;SDS011;59019;47.638;18.966;2022-10-29T06:38:45;22.67;;;9.90;;
71253;SDS011;59019;47.638;18.966;2022-10-29T06:41:11;22.60;;;9.37;;
71253;SDS011;59019;47.638;18.966;2022-10-29T06:43:36;23.55;;;10.07;;
71253;SDS011;59019;47.638;18.966;2022-10-29T06:46:02;27.60;;;11.77;;
71253;SDS011;59019;47.638;18.966;2022-10-29T06:48:28;25.17;;;11.20;;
71253;SDS011;59019;47.638;18.966;2022-10-29T06:50:56;27.70;;;11.13;;
71253;SDS011;59019;47.638;18.966;2022-10-29T06:53:23;28.38;;;11.68;;
71253;SDS011;59019;47.638;18.966;2022-10-29T06:55:48;24.80;;;10.20;;
71253;SDS011;59019;47.638;18.966;2022-10-29T06:58:15;26.40;;;11.75;;
71253;SDS011;59019;47.638;18.966;2022-10-29T07:00:42;26.40;;;10.85;;
71253;SDS011;59019;47.638;18.966;2022-10-29T07:03:12;30.67;;;12.40;;
71253;SDS011;59019;47.638;18.966;2022-10-29T07:05:42;31.13;;;13.75;;
71253;SDS011;59019;47.638;18.966;2022-10-29T07:08:08;29.67;;;12.68;;
71253;SDS011;59019;47.638;18.966;2022-10-29T07:10:34;27.10;;;11.75;;
71253;SDS011;59019;47.638;18.966;2022-10-29T07:13:00;26.48;;;11.60;;
71253;SDS011;59019;47.638;18.966;2022-10-29T07:15:27;28.08;;;12.90;;
71253;SDS011;59019;47.638;18.966;2022-10-29T07:20:31;26.15;;;12.02;;
71253;SDS011;59019;47.638;18.966;2022-10-29T07:22:58;27.20;;;12.18;;
71253;SDS011;59019;47.638;18.966;2022-10-29T07:25:25;26.23;;;12.35;;
71253;SDS011;59019;47.638;18.966;2022-10-29T07:27:51;30.23;;;12.45;;
71253;SDS011;59019;47.638;18.966;2022-10-29T07:30:17;22.63;;;11.83;;
71253;SDS011;59019;47.638;18.966;2022-10-29T07:32:43;26.30;;;12.45;;
71253;SDS011;59019;47.638;18.966;2022-10-29T07:35:08;24.50;;;11.67;;
71253;SDS011;59019;47.638;18.966;2022-10-29T07:37:34;25.47;;;11.03;;
71253;SDS011;59019;47.638;18.966;2022-10-29T07:40:00;28.33;;;12.82;;
71253;SDS011;59019;47.638;18.966;2022-10-29T07:42:25;27.73;;;12.80;;
71253;SDS011;59019;47.638;18.966;2022-10-29T07:44:51;28.73;;;11.57;;
71253;SDS011;59019;47.638;18.966;2022-10-29T07:47:16;29.65;;;13.25;;
71253;SDS011;59019;47.638;18.966;2022-10-29T07:49:42;26.87;;;11.23;;
71253;SDS011;59019;47.638;18.966;2022-10-29T07:52:07;28.43;;;12.23;;
71253;SDS011;59019;47.638;18.966;2022-10-29T07:54:34;29.70;;;12.02;;
71253;SDS011;59019;47.638;18.966;2022-10-29T07:56:59;28.90;;;11.87;;
71253;SDS011;59019;47.638;18.966;2022-10-29T07:59:25;28.23;;;12.23;;
71253;SDS011;59019;47.638;18.966;2022-10-29T08:01:50;30.00;;;13.02;;
71253;SDS011;59019;47.638;18.966;2022-10-29T08:04:16;28.10;;;12.33;;
71253;SDS011;59019;47.638;18.966;2022-10-29T08:06:41;32.97;;;12.37;;
71253;SDS011;59019;47.638;18.966;2022-10-29T08:09:07;26.83;;;12.00;;
71253;SDS011;59019;47.638;18.966;2022-10-29T08:11:36;25.97;;;11.60;;
71253;SDS011;59019;47.638;18.966;2022-10-29T08:14:02;29.20;;;12.13;;
71253;SDS011;59019;47.638;18.966;2022-10-29T08:16:27;26.02;;;11.43;;
71253;SDS011;59019;47.638;18.966;2022-10-29T08:18:53;25.73;;;11.10;;
71253;SDS011;59019;47.638;18.966;2022-10-29T08:21:18;26.90;;;11.73;;
71253;SDS011;59019;47.638;18.966;2022-10-29T08:23:44;30.10;;;12.25;;
71253;SDS011;59019;47.638;18.966;2022-10-29T08:26:10;28.23;;;12.23;;
71253;SDS011;59019;47.638;18.966;2022-10-29T08:28:36;27.90;;;11.47;;
71253;SDS011;59019;47.638;18.966;2022-10-29T08:31:02;28.45;;;11.48;;
71253;SDS011;59019;47.638;18.966;2022-10-29T08:33:27;23.63;;;10.52;;
71253;SDS011;59019;47.638;18.966;2022-10-29T08:35:53;26.63;;;11.10;;
71253;SDS011;59019;47.638;18.966;2022-10-29T08:38:19;26.27;;;10.82;;
71253;SDS011;59019;47.638;18.966;2022-10-29T08:46:20;21.58;;;10.27;;
71253;SDS011;59019;47.638;18.966;2022-10-29T08:48:53;21.48;;;10.05;;
71253;SDS011;59019;47.638;18.966;2022-10-29T08:51:35;21.83;;;11.30;;
71253;SDS011;59019;47.638;18.966;2022-10-29T08:54:03;21.35;;;10.40;;
71253;SDS011;59019;47.638;18.966;2022-10-29T08:56:31;23.23;;;10.38;;
71253;SDS011;59019;47.638;18.966;2022-10-29T08:59:08;21.05;;;9.93;;
71253;SDS011;59019;47.638;18.966;2022-10-29T09:01:40;20.17;;;9.47;;
71253;SDS011;59019;47.638;18.966;2022-10-29T09:04:22;23.83;;;10.93;;
71253;SDS011;59019;47.638;18.966;2022-10-29T09:09:26;18.63;;;9.38;;
71253;SDS011;59019;47.638;18.966;2022-10-29T09:14:49;21.00;;;9.73;;
71253;SDS011;59019;47.638;18.966;2022-10-29T09:17:35;21.10;;;10.68;;
71253;SDS011;59019;47.638;18.966;2022-10-29T09:26:03;21.15;;;10.15;;
71253;SDS011;59019;47.638;18.966;2022-10-29T09:31:50;20.52;;;9.70;;
71253;SDS011;59019;47.638;18.966;2022-10-29T09:34:24;19.38;;;10.32;;
71253;SDS011;59019;47.638;18.966;2022-10-29T09:36:58;20.33;;;10.48;;
71253;SDS011;59019;47.638;18.966;2022-10-29T09:39:37;19.27;;;9.60;;
71253;SDS011;59019;47.638;18.966;2022-10-29T09:42:07;19.80;;;10.18;;
71253;SDS011;59019;47.638;18.966;2022-10-29T09:44:37;20.33;;;10.05;;
71253;SDS011;59019;47.638;18.966;2022-10-29T09:50:10;22.63;;;10.98;;
71253;SDS011;59019;47.638;18.966;2022-10-29T09:52:47;21.13;;;10.87;;
71253;SDS011;59019;47.638;18.966;2022-10-29T09:55:18;20.30;;;10.95;;
71253;SDS011;59019;47.638;18.966;2022-10-29T09:57:47;22.58;;;10.98;;
71253;SDS011;59019;47.638;18.966;2022-10-29T10:00:18;22.40;;;10.95;;
71253;SDS011;59019;47.638;18.966;2022-10-29T10:03:06;23.08;;;10.93;;
71253;SDS011;59019;47.638;18.966;2022-10-29T10:05:58;21.80;;;10.40;;
71253;SDS011;59019;47.638;18.966;2022-10-29T10:08:24;20.73;;;11.00;;
71253;SDS011;59019;47.638;18.966;2022-10-29T10:10:54;20.70;;;10.60;;
71253;SDS011;59019;47.638;18.966;2022-10-29T10:13:24;21.88;;;11.10;;
71253;SDS011;59019;47.638;18.966;2022-10-29T10:15:55;18.67;;;10.15;;
71253;SDS011;59019;47.638;18.966;2022-10-29T10:23:39;17.90;;;9.77;;
71253;SDS011;59019;47.638;18.966;2022-10-29T10:29:30;19.88;;;10.63;;
71253;SDS011;59019;47.638;18.966;2022-10-29T10:34:21;20.70;;;10.45;;
71253;SDS011;59019;47.638;18.966;2022-10-29T10:36:56;22.03;;;11.00;;
71253;SDS011;59019;47.638;18.966;2022-10-29T10:42:01;19.35;;;9.90;;
71253;SDS011;59019;47.638;18.966;2022-10-29T10:44:29;22.98;;;11.45;;
71253;SDS011;59019;47.638;18.966;2022-10-29T10:46:56;23.48;;;11.55;;
71253;SDS011;59019;47.638;18.966;2022-10-29T10:49:32;22.60;;;11.00;;
71253;SDS011;59019;47.638;18.966;2022-10-29T10:52:02;21.70;;;11.18;;
71253;SDS011;59019;47.638;18.966;2022-10-29T10:54:46;22.98;;;10.85;;
71253;SDS011;59019;47.638;18.966;2022-10-29T10:57:26;19.88;;;10.05;;
71253;SDS011;59019;47.638;18.966;2022-10-29T11:00:04;20.13;;;11.10;;
71253;SDS011;59019;47.638;18.966;2022-10-29T11:05:15;21.63;;;11.02;;
71253;SDS011;59019;47.638;18.966;2022-10-29T11:07:42;23.55;;;11.82;;
71253;SDS011;59019;47.638;18.966;2022-10-29T11:10:12;22.70;;;11.73;;
71253;SDS011;59019;47.638;18.966;2022-10-29T11:12:41;21.50;;;10.57;;
71253;SDS011;59019;47.638;18.966;2022-10-29T11:17:46;21.25;;;10.25;;
71253;SDS011;59019;47.638;18.966;2022-10-29T11:25:35;22.73;;;11.88;;
71253;SDS011;59019;47.638;18.966;2022-10-29T11:30:41;21.33;;;11.30;;
71253;SDS011;59019;47.638;18.966;2022-10-29T11:33:16;20.30;;;10.30;;
71253;SDS011;59019;47.638;18.966;2022-10-29T11:38:45;20.38;;;10.35;;
71253;SDS011;59019;47.638;18.966;2022-10-29T11:43:55;22.25;;;10.30;;
71253;SDS011;59019;47.638;18.966;2022-10-29T11:46:31;20.55;;;10.60;;
71253;SDS011;59019;47.638;18.966;2022-10-29T11:52:04;20.20;;;10.55;;
71253;SDS011;59019;47.638;18.966;2022-10-29T12:13:15;17.00;;;8.83;;
71253;SDS011;59019;47.638;18.966;2022-10-29T12:27:07;16.95;;;10.10;;
71253;SDS011;59019;47.638;18.966;2022-10-29T12:29:44;18.55;;;10.00;;
71253;SDS011;59019;47.638;18.966;2022-10-29T12:32:20;18.13;;;9.77;;
71253;SDS011;59019;47.638;18.966;2022-10-29T12:40:02;20.02;;;11.63;;
71253;SDS011;59019;47.638;18.966;2022-10-29T12:42:38;18.23;;;10.50;;
71253;SDS011;59019;47.638;18.966;2022-10-29T12:51:00;22.20;;;11.30;;
71253;SDS011;59019;47.638;18.966;2022-10-29T12:56:05;19.37;;;11.23;;
71253;SDS011;59019;47.638;18.966;2022-10-29T12:58:42;20.15;;;11.30;;
71253;SDS011;59019;47.638;18.966;2022-10-29T13:09:23;21.60;;;11.32;;
71253;SDS011;59019;47.638;18.966;2022-10-29T13:11:52;21.33;;;12.53;;
71253;SDS011;59019;47.638;18.966;2022-10-29T13:14:20;23.38;;;12.50;;
71253;SDS011;59019;47.638;18.966;2022-10-29T13:16:56;21.75;;;11.63;;
71253;SDS011;59019;47.638;18.966;2022-10-29T13:19:36;20.48;;;11.23;;
71253;SDS011;59019;47.638;18.966;2022-10-29T13:24:39;22.27;;;11.67;;
71253;SDS011;59019;47.638;18.966;2022-10-29T13:32:28;21.95;;;11.38;;
71253;SDS011;59019;47.638;18.966;2022-10-29T13:34:59;20.37;;;11.43;;
71253;SDS011;59019;47.638;18.966;2022-10-29T13:37:38;20.65;;;12.02;;
71253;SDS011;59019;47.638;18.966;2022-10-29T13:45:24;29.13;;;14.77;;
71253;SDS011;59019;47.638;18.966;2022-10-29T13:47:50;25.87;;;13.37;;
71253;SDS011;59019;47.638;18.966;2022-10-29T13:50:16;22.00;;;11.88;;
71253;SDS011;59019;47.638;18.966;2022-10-29T13:52:43;26.27;;;13.05;;
71253;SDS011;59019;47.638;18.966;2022-10-29T13:55:15;24.83;;;12.75;;
71253;SDS011;59019;47.638;18.966;2022-10-29T13:58:03;26.33;;;12.17;;
71253;SDS011;59019;47.638;18.966;2022-10-29T14:00:34;27.48;;;13.90;;
71253;SDS011;59019;47.638;18.966;2022-10-29T14:05:55;26.67;;;12.60;;
71253;SDS011;59019;47.638;18.966;2022-10-29T14:11:16;28.10;;;13.27;;
71253;SDS011;59019;47.638;18.966;2022-10-29T14:13:50;27.23;;;12.95;;
71253;SDS011;59019;47.638;18.966;2022-10-29T14:16:17;30.60;;;14.00;;
71253;SDS011;59019;47.638;18.966;2022-10-29T14:18:46;27.40;;;13.60;;
71253;SDS011;59019;47.638;18.966;2022-10-29T14:23:58;26.47;;;12.70;;
71253;SDS011;59019;47.638;18.966;2022-10-29T14:26:39;30.27;;;14.02;;
71253;SDS011;59019;47.638;18.966;2022-10-29T14:29:22;28.60;;;13.43;;
71253;SDS011;59019;47.638;18.966;2022-10-29T14:32:03;34.55;;;14.20;;
71253;SDS011;59019;47.638;18.966;2022-10-29T14:34:29;30.42;;;14.65;;
71253;SDS011;59019;47.638;18.966;2022-10-29T14:36:57;27.63;;;12.87;;
71253;SDS011;59019;47.638;18.966;2022-10-29T14:39:48;29.05;;;12.77;;
71253;SDS011;59019;47.638;18.966;2022-10-29T14:42:20;26.33;;;12.25;;
71253;SDS011;59019;47.638;18.966;2022-10-29T14:44:53;27.10;;;12.47;;
71253;SDS011;59019;47.638;18.966;2022-10-29T14:47:25;27.25;;;12.55;;
71253;SDS011;59019;47.638;18.966;2022-10-29T14:49:54;26.10;;;13.13;;
71253;SDS011;59019;47.638;18.966;2022-10-29T14:52:25;29.17;;;13.10;;
71253;SDS011;59019;47.638;18.966;2022-10-29T14:55:07;39.38;;;16.42;;
71253;SDS011;59019;47.638;18.966;2022-10-29T14:57:58;33.17;;;13.73;;
71253;SDS011;59019;47.638;18.966;2022-10-29T15:00:34;28.85;;;13.90;;
71253;SDS011;59019;47.638;18.966;2022-10-29T15:03:01;29.30;;;12.40;;
71253;SDS011;59019;47.638;18.966;2022-10-29T15:05:28;27.02;;;12.90;;
71253;SDS011;59019;47.638;18.966;2022-10-29T15:08:02;27.85;;;12.52;;
71253;SDS011;59019;47.638;18.966;2022-10-29T15:10:45;25.87;;;11.97;;
71253;SDS011;59019;47.638;18.966;2022-10-29T15:15:53;30.95;;;13.25;;
71253;SDS011;59019;47.638;18.966;2022-10-29T15:18:23;29.48;;;13.40;;
71253;SDS011;59019;47.638;18.966;2022-10-29T15:20:49;28.95;;;12.90;;
71253;SDS011;59019;47.638;18.966;2022-10-29T15:23:19;31.00;;;14.93;;
71253;SDS011;59019;47.638;18.966;2022-10-29T15:26:15;28.00;;;13.10;;
71253;SDS011;59019;47.638;18.966;2022-10-29T15:28:45;31.10;;;15.23;;
71253;SDS011;59019;47.638;18.966;2022-10-29T15:31:23;56.28;;;26.52;;
71253;SDS011;59019;47.638;18.966;2022-10-29T15:33:52;55.55;;;31.55;;
71253;SDS011;59019;47.638;18.966;2022-10-29T15:36:19;37.90;;;19.70;;
71253;SDS011;59019;47.638;18.966;2022-10-29T15:43:51;39.77;;;19.03;;
71253;SDS011;59019;47.638;18.966;2022-10-29T15:46:26;37.45;;;16.77;;
71253;SDS011;59019;47.638;18.966;2022-10-29T15:48:59;31.98;;;15.85;;
71253;SDS011;59019;47.638;18.966;2022-10-29T15:51:25;28.67;;;15.20;;
71253;SDS011;59019;47.638;18.966;2022-10-29T15:53:53;28.35;;;13.48;;
71253;SDS011;59019;47.638;18.966;2022-10-29T15:56:20;30.73;;;14.02;;
71253;SDS011;59019;47.638;18.966;2022-10-29T15:58:45;32.07;;;14.30;;
71253;SDS011;59019;47.638;18.966;2022-10-29T16:01:11;29.93;;;13.80;;
71253;SDS011;59019;47.638;18.966;2022-10-29T16:03:39;29.88;;;13.07;;
71253;SDS011;59019;47.638;18.966;2022-10-29T16:06:05;32.08;;;15.02;;
71253;SDS011;59019;47.638;18.966;2022-10-29T16:11:13;30.30;;;14.13;;
71253;SDS011;59019;47.638;18.966;2022-10-29T16:13:40;31.95;;;14.35;;
71253;SDS011;59019;47.638;18.966;2022-10-29T16:16:10;31.07;;;15.00;;
71253;SDS011;59019;47.638;18.966;2022-10-29T16:18:37;35.00;;;15.00;;
71253;SDS011;59019;47.638;18.966;2022-10-29T16:21:03;30.70;;;14.35;;
71253;SDS011;59019;47.638;18.966;2022-10-29T16:23:35;28.27;;;13.48;;
71253;SDS011;59019;47.638;18.966;2022-10-29T16:26:02;34.30;;;14.63;;
71253;SDS011;59019;47.638;18.966;2022-10-29T16:28:28;31.92;;;13.63;;
71253;SDS011;59019;47.638;18.966;2022-10-29T16:30:54;33.00;;;14.02;;
71253;SDS011;59019;47.638;18.966;2022-10-29T16:33:24;33.13;;;16.43;;
71253;SDS011;59019;47.638;18.966;2022-10-29T16:35:50;35.38;;;15.02;;
71253;SDS011;59019;47.638;18.966;2022-10-29T16:38:15;41.53;;;17.58;;
71253;SDS011;59019;47.638;18.966;2022-10-29T16:40:42;41.60;;;18.02;;
71253;SDS011;59019;47.638;18.966;2022-10-29T16:43:09;33.80;;;16.00;;
71253;SDS011;59019;47.638;18.966;2022-10-29T16:45:35;36.95;;;16.10;;
71253;SDS011;59019;47.638;18.966;2022-10-29T16:48:01;36.70;;;15.82;;
71253;SDS011;59019;47.638;18.966;2022-10-29T16:50:31;34.28;;;15.40;;
71253;SDS011;59019;47.638;18.966;2022-10-29T16:52:58;33.25;;;15.70;;
71253;SDS011;59019;47.638;18.966;2022-10-29T16:55:26;37.35;;;17.50;;
71253;SDS011;59019;47.638;18.966;2022-10-29T16:57:53;36.67;;;16.73;;
71253;SDS011;59019;47.638;18.966;2022-10-29T17:00:18;33.20;;;15.07;;
71253;SDS011;59019;47.638;18.966;2022-10-29T17:02:45;35.92;;;15.55;;
71253;SDS011;59019;47.638;18.966;2022-10-29T17:05:11;35.67;;;16.83;;
71253;SDS011;59019;47.638;18.966;2022-10-29T17:07:37;33.00;;;14.77;;
71253;SDS011;59019;47.638;18.966;2022-10-29T17:10:05;31.90;;;14.10;;
71253;SDS011;59019;47.638;18.966;2022-10-29T17:12:31;31.67;;;14.07;;
71253;SDS011;59019;47.638;18.966;2022-10-29T17:14:58;28.00;;;13.73;;
71253;SDS011;59019;47.638;18.966;2022-10-29T17:17:30;32.33;;;14.65;;